Weather observations for the past three days for
Minden Airport
| Date | Time (cdt) | Wind (kph) | Vis. (km) | Weather | Sky Cond. | Temperature (ºC) | Relative Humidity | Wind Chill (°C) | Heat Index (°C) | Pressure | Precipitation (cm) | ||||||
|---|---|---|---|---|---|---|---|---|---|---|---|---|---|---|---|---|---|
| Air | Dwpt | 6 hour | altimeter (cm) | sea level (mb) | 1 hr | 3 hr | 6 hr | ||||||||||
| Max. | Min. | ||||||||||||||||
| 05 | 17:35 | S 15 G 30 | 16.09 | Partly Cloudy | SCT031 | 27 | 20 | 66% | 29 | 75.49 | 0.0 | ||||||
| 05 | 17:15 | Calm | 16.09 | Partly Cloudy | SCT029 | 28 | 20 | 62% | 30 | 75.49 | 0.0 | ||||||
| 05 | 16:55 | S 17 G 28 | 16.09 | Partly Cloudy | SCT029 SCT042 SCT048 | 27 | 20 | 66% | 29 | 75.49 | 0.0 | 0.03 | |||||
| 05 | 16:35 | S 17 | 0.00 | NULL | NULL | 27 | 20 | 66% | 29 | 75.51 | 0.0 | ||||||
| 05 | 16:15 | S 13 G 33 | 16.09 | Overcast | SCT026 BKN033 OVC039 | 26 | 19 | 65% | 27 | 75.54 | 0.0 | ||||||
| 05 | 15:55 | S 19 G 35 | 16.09 | Overcast | BKN027 OVC037 | 27 | 19 | 62% | 28 | 75.54 | 0.0 | 0.03 | |||||
| 05 | 15:35 | S 17 G 30 | 16.09 | Overcast | SCT026 BKN031 OVC042 | 27 | 19 | 62% | 28 | 75.51 | 0.0 | 0.03 | |||||
| 05 | 15:15 | S 17 G 33 | 16.09 | Overcast | BKN025 BKN033 OVC040 | 27 | 19 | 62% | 28 | 75.54 | 0.0 | 0.03 | |||||
| 05 | 14:55 | S 17 G 33 | 16.09 | Overcast | BKN025 BKN030 OVC047 | 27 | 20 | 66% | 29 | 75.57 | 0.0 | ||||||
| 05 | 14:35 | S 17 | 16.09 | Overcast | BKN025 BKN031 OVC047 | 27 | 20 | 66% | 29 | 75.59 | 0.0 | ||||||
| 05 | 14:15 | S 15 G 26 | 16.09 | Overcast | BKN023 OVC032 | 26 | 19 | 65% | 27 | 75.62 | 0.0 | ||||||
| 05 | 13:55 | S 13 G 26 | 16.09 | Overcast | BKN023 OVC029 | 26 | 19 | 65% | 27 | 75.62 | 0.0 | 0.03 | |||||
| 05 | 13:35 | S 9 G 35 | 16.09 | Overcast | BKN021 OVC030 | 25 | 19 | 69% | 26 | 75.62 | 0.0 | ||||||
| 05 | 13:15 | S 15 G 30 | 16.09 | Overcast | OVC021 | 25 | 18 | 65% | 26 | 75.62 | 0.0 | ||||||
| 05 | 12:55 | S 22 G 30 | 16.09 | Overcast | BKN019 OVC026 | 25 | 18 | 65% | 26 | 75.59 | 0.0 | 0.03 | |||||
| 05 | 12:35 | S 17 G 30 | 16.09 | Overcast | OVC019 | 24 | 18 | 69% | 25 | 75.64 | 0.0 | 0.03 | |||||
| 05 | 11:55 | S 17 | 16.09 | Overcast | OVC014 | 23 | 18 | 74% | 75.67 | 0.0 | |||||||
| 05 | 11:35 | S 13 G 28 | 16.09 | Overcast | OVC014 | 22 | 18 | 78% | 75.67 | 0.0 | |||||||
| 05 | 11:15 | S 15 | 16.09 | Overcast | OVC014 | 22 | 18 | 78% | 75.69 | 0.0 | |||||||
| 05 | 10:55 | S 11 | 16.09 | Overcast | OVC014 | 22 | 18 | 78% | 75.67 | 0.0 | 0.03 | ||||||
| 05 | 10:35 | S 13 G 28 | 16.09 | Overcast | OVC012 | 21 | 17 | 78% | 75.69 | 0.0 | 0.03 | ||||||
| 05 | 09:55 | S 7 | 16.09 | Overcast | OVC012 | 21 | 17 | 78% | 75.67 | 0.0 | |||||||
| 05 | 09:35 | S 9 | 16.09 | Overcast | OVC012 | 20 | 17 | 83% | 75.67 | 0.0 | |||||||
| 05 | 09:15 | S 13 | 16.09 | Overcast | OVC012 | 20 | 17 | 83% | 75.67 | 0.0 | |||||||
| 05 | 08:55 | S 13 | 16.09 | Overcast | OVC012 | 20 | 17 | 83% | 75.67 | 0.0 | |||||||
| 05 | 08:35 | S 11 | 16.09 | Overcast | OVC012 | 20 | 16 | 78% | 75.67 | 0.0 | |||||||
| 05 | 08:15 | S 7 | 16.09 | Overcast | OVC012 | 19 | 16 | 83% | 75.67 | 0.0 | |||||||
| 05 | 07:35 | S 6 | 16.09 | Overcast | BKN012 OVC026 | 19 | 16 | 83% | 75.64 | 0.0 | |||||||
| 05 | 07:15 | S 11 | 16.09 | Overcast | OVC012 | 18 | 16 | 88% | 75.64 | 0.0 | |||||||
| 05 | 06:55 | S 9 | 16.09 | Overcast | OVC012 | 18 | 16 | 88% | 75.64 | 0.0 | |||||||
| 05 | 06:15 | S 11 | 16.09 | Overcast | OVC014 | 18 | 16 | 88% | 75.62 | 0.0 | |||||||
| 05 | 05:55 | S 11 | 16.09 | Overcast | OVC016 | 18 | 16 | 88% | 75.62 | 0.0 | 0.03 | ||||||
| 05 | 05:35 | S 9 | 16.09 | Overcast | OVC016 | 18 | 15 | 83% | 75.62 | 0.0 | |||||||
| 05 | 05:15 | S 7 | 16.09 | Overcast | OVC016 | 18 | 15 | 83% | 75.62 | 0.0 | |||||||
| 05 | 04:55 | S 17 G 26 | 16.09 | Overcast | BKN018 OVC032 | 18 | 15 | 83% | 75.64 | 0.0 | |||||||
| 05 | 04:35 | S 7 | 16.09 | Partly Cloudy | SCT032 | 18 | 15 | 83% | 75.67 | 0.0 | |||||||
| 05 | 04:15 | S 11 | 16.09 | Partly Cloudy | SCT015 | 18 | 15 | 83% | 75.67 | 0.0 | |||||||
| 05 | 03:55 | S 9 | 16.09 | Partly Cloudy | SCT017 | 18 | 15 | 83% | 75.67 | 0.0 | |||||||
| 05 | 03:35 | S 7 | 16.09 | Partly Cloudy | SCT017 | 19 | 15 | 78% | 75.67 | 0.0 | |||||||
| 05 | 03:15 | S 13 | 16.09 | Mostly Cloudy | BKN017 | 19 | 15 | 78% | 75.67 | 0.0 | |||||||
| 05 | 02:55 | Calm | 16.09 | Partly Cloudy | SCT019 | 19 | 15 | 78% | 75.69 | 0.0 | 0.03 | ||||||
| 05 | 02:35 | SE 11 | 16.09 | Fair | CLR | 19 | 15 | 78% | 75.69 | 0.0 | |||||||
| 05 | 02:15 | S 11 | 16.09 | Fair | CLR | 20 | 15 | 73% | 75.72 | 0.0 | |||||||
| 05 | 01:55 | S 7 | 16.09 | Fair | CLR | 20 | 15 | 73% | 75.74 | 0.0 | |||||||
| 05 | 01:35 | S 9 | 16.09 | Fair | CLR | 20 | 15 | 73% | 75.77 | 0.0 | |||||||
| 05 | 01:15 | S 9 | 16.09 | Fair | CLR | 20 | 15 | 73% | 75.77 | 0.0 | |||||||
| 05 | 00:55 | S 11 | 16.09 | Fair | CLR | 20 | 14 | 69% | 75.77 | 0.0 | 0.03 | ||||||
| 05 | 00:35 | S 9 | 16.09 | Fair | CLR | 20 | 14 | 69% | 75.77 | 0.0 | 0.03 | ||||||
| 05 | 00:15 | S 13 G 30 | 16.09 | Fair | CLR | 20 | 14 | 69% | 75.74 | 0.0 | |||||||
| 04 | 23:55 | S 13 | 16.09 | Fair | CLR | 20 | 13 | 64% | 75.79 | 0.0 | |||||||
| 04 | 23:35 | S 9 | 16.09 | Fair | CLR | 21 | 13 | 60% | 75.77 | 0.0 | |||||||
| 04 | 23:15 | SE 9 | 16.09 | Fair | CLR | 21 | 13 | 60% | 75.77 | 0.0 | |||||||
| 04 | 22:55 | S 11 | 16.09 | Fair | CLR | 21 | 13 | 60% | 75.79 | 0.0 | |||||||
| 04 | 22:35 | S 7 | 16.09 | Fair | CLR | 21 | 12 | 57% | 75.79 | 0.0 | |||||||
| 04 | 22:15 | S 15 | 16.09 | Fair | CLR | 21 | 12 | 57% | 75.79 | 0.0 | |||||||
| 04 | 21:55 | SE 9 | 16.09 | Fair | CLR | 21 | 12 | 57% | 75.77 | 0.0 | 0.03 | ||||||
| 04 | 21:35 | SE 7 | 16.09 | Fair | CLR | 21 | 12 | 57% | 75.74 | 0.0 | |||||||
| 04 | 21:15 | S 11 | 16.09 | Fair | CLR | 22 | 12 | 53% | 75.74 | 0.0 | |||||||
| 04 | 20:55 | S 9 | 16.09 | Fair | CLR | 22 | 12 | 53% | 75.74 | 0.0 | |||||||
| 04 | 20:35 | S 9 | 16.09 | Fair | CLR | 22 | 11 | 50% | 75.72 | 0.0 | |||||||
| 04 | 20:15 | S 7 | 16.09 | Fair | CLR | 23 | 11 | 47% | 75.69 | 0.0 | |||||||
| 04 | 19:55 | S 7 | 16.09 | Fair | CLR | 23 | 11 | 47% | 75.72 | 0.0 | 0.03 | ||||||
| 04 | 19:35 | S 9 | 16.09 | Fair | CLR | 23 | 11 | 47% | 75.72 | 0.0 | |||||||
| 04 | 19:15 | S 11 | 16.09 | Fair | CLR | 24 | 11 | 44% | 25 | 75.74 | 0.0 | ||||||
| 04 | 18:55 | S 6 | 16.09 | Fair | CLR | 25 | 10 | 39% | 26 | 75.77 | 0.0 | ||||||
| 04 | 18:35 | S 17 | 16.09 | Fair | CLR | 25 | 10 | 39% | 26 | 75.74 | 0.0 | ||||||
| 04 | 18:15 | S 11 | 16.09 | Fair | CLR | 26 | 9 | 34% | 26 | 75.77 | 0.0 | ||||||
| 04 | 17:55 | S 17 G 26 | 16.09 | Fair | CLR | 26 | 8 | 32% | 26 | 75.79 | 0.0 | 0.03 | |||||
| 04 | 17:35 | S 15 | 16.09 | Fair | CLR | 26 | 8 | 32% | 26 | 75.82 | 0.0 | ||||||
| 04 | 17:15 | S 13 | 16.09 | Fair | CLR | 26 | 9 | 34% | 26 | 75.82 | 0.0 | ||||||
| 04 | 16:55 | S 15 | 16.09 | Fair | CLR | 26 | 8 | 32% | 26 | 75.84 | 0.0 | 0.03 | |||||
| 04 | 16:35 | S 15 G 26 | 16.09 | Fair | CLR | 26 | 8 | 32% | 26 | 75.87 | 0.0 | 0.03 | |||||
| 04 | 16:15 | SW 17 G 28 | 16.09 | Fair | CLR | 26 | 8 | 32% | 26 | 75.9 | 0.0 | ||||||
| 04 | 15:55 | S 11 G 26 | 16.09 | Fair | CLR | 26 | 7 | 30% | 26 | 75.92 | 0.0 | ||||||
| 04 | 15:35 | SW 20 G 28 | 16.09 | Fair | CLR | 26 | 8 | 32% | 26 | 75.95 | 0.0 | ||||||
| 04 | 15:15 | SW 20 G 33 | 16.09 | Fair | CLR | 26 | 7 | 30% | 26 | 75.97 | 0.0 | ||||||
| 04 | 14:55 | S 15 G 28 | 16.09 | Fair | CLR | 26 | 8 | 32% | 26 | 76 | 0.0 | 0.03 | |||||
| 04 | 14:35 | S 13 G 30 | 16.09 | Fair | CLR | 25 | 7 | 32% | 25 | 76.05 | 0.0 | 0.03 | |||||
| 04 | 14:15 | S 20 G 33 | 16.09 | Fair | CLR | 25 | 8 | 34% | 26 | 76.07 | 0.0 | ||||||
| 04 | 13:55 | SW 19 G 28 | 16.09 | Fair | CLR | 25 | 7 | 32% | 25 | 76.07 | 0.0 | ||||||
| 04 | 13:35 | S 11 G 30 | 16.09 | Fair | CLR | 25 | 8 | 34% | 26 | 76.1 | 0.0 | ||||||
| 04 | 13:15 | S 19 G 28 | 16.09 | Fair | CLR | 25 | 8 | 34% | 26 | 76.12 | 0.0 | ||||||
| 04 | 12:55 | S 11 G 26 | 16.09 | Fair | CLR | 24 | 8 | 36% | 25 | 76.12 | 0.0 | 0.03 | |||||
| 04 | 12:35 | S 24 G 31 | 16.09 | Fair | CLR | 24 | 8 | 36% | 25 | 76.15 | 0.0 | ||||||
| 04 | 12:15 | S 15 G 35 | 16.09 | Fair | CLR | 23 | 8 | 38% | 76.15 | 0.0 | |||||||
| 04 | 11:55 | S 24 G 33 | 16.09 | Fair | CLR | 24 | 8 | 36% | 25 | 76.17 | 0.0 | ||||||
| 04 | 11:35 | S 22 G 31 | 16.09 | Fair | CLR | 23 | 8 | 38% | 76.2 | 0.0 | |||||||
| 04 | 11:15 | S 19 G 28 | 16.09 | Fair | CLR | 23 | 8 | 38% | 76.23 | 0.0 | |||||||
| 04 | 10:55 | S 15 | 16.09 | Fair | CLR | 23 | 9 | 41% | 76.23 | 0.0 | 0.03 | ||||||
| 04 | 10:35 | SW 15 G 30 | 16.09 | Fair | CLR | 22 | 9 | 44% | 76.23 | 0.0 | 0.03 | ||||||
| 04 | 10:15 | SW 17 | 16.09 | Fair | CLR | 22 | 10 | 47% | 76.23 | 0.0 | 0.03 | ||||||
| 04 | 09:55 | S 15 | 16.09 | Fair | CLR | 21 | 10 | 50% | 76.25 | 0.0 | |||||||
| 04 | 09:35 | SW 15 | 16.09 | Fair | CLR | 20 | 10 | 53% | 76.25 | 0.0 | |||||||
| 04 | 09:15 | SW 19 | 16.09 | Fair | CLR | 19 | 10 | 56% | 76.25 | 0.0 | |||||||
| 04 | 08:55 | SW 15 | 16.09 | Fair | CLR | 18 | 11 | 64% | 76.25 | 0.0 | |||||||
| 04 | 08:35 | S 11 | 16.09 | Fair | CLR | 17 | 11 | 68% | 76.23 | 0.0 | |||||||
| 04 | 08:15 | S 7 | 16.09 | Fair | CLR | 16 | 11 | 72% | 76.23 | 0.0 | |||||||
| 04 | 07:55 | Calm | 16.09 | Fair | CLR | 15 | 11 | 77% | 76.25 | 0.0 | |||||||
| 04 | 07:35 | Calm | 16.09 | Fair | CLR | 14 | 11 | 82% | 76.23 | 0.0 | |||||||
| 04 | 07:15 | Calm | 16.09 | Fair | CLR | 13 | 10 | 82% | 76.23 | 0.0 | |||||||
| 04 | 06:55 | Calm | 16.09 | Fair | CLR | 12 | 10 | 88% | 76.2 | 0.0 | |||||||
| 04 | 06:35 | Calm | 16.09 | Fair | CLR | 12 | 10 | 88% | 76.2 | 0.0 | |||||||
| 04 | 06:15 | Calm | 16.09 | Fair | CLR | 13 | 10 | 82% | 76.17 | 0.0 | |||||||
| 04 | 05:55 | Calm | 16.09 | Fair | CLR | 13 | 10 | 82% | 76.2 | 0.0 | |||||||
| 04 | 05:35 | Calm | 16.09 | Fair | CLR | 13 | 10 | 82% | 76.2 | 0.0 | |||||||
| 04 | 05:15 | Calm | 16.09 | Fair | CLR | 14 | 10 | 77% | 76.2 | 0.0 | |||||||
| 04 | 04:55 | Calm | 16.09 | Fair | CLR | 14 | 10 | 77% | 76.23 | 0.0 | |||||||
| 04 | 04:35 | S 7 | 16.09 | Fair | CLR | 14 | 10 | 77% | 76.2 | 0.0 | |||||||
| 04 | 04:15 | S 6 | 16.09 | Fair | CLR | 14 | 10 | 77% | 76.2 | 0.0 | |||||||
| 04 | 03:55 | Calm | 16.09 | Fair | CLR | 14 | 10 | 77% | 76.2 | 0.0 | 0.03 | ||||||
| 04 | 03:35 | Calm | 16.09 | Fair | CLR | 15 | 10 | 72% | 76.2 | 0.0 | |||||||
| 04 | 03:15 | S 6 | 16.09 | Fair | CLR | 15 | 10 | 72% | 76.2 | 0.0 | |||||||
| 04 | 02:55 | Calm | 16.09 | Fair | CLR | 15 | 11 | 77% | 76.2 | 0.0 | |||||||
| 04 | 02:36 | S 6 | 16.09 | Fair | CLR | 15 | 11 | 77% | 76.23 | 0.0 | |||||||
| 04 | 02:15 | SE 6 | 16.09 | Fair | CLR | 13 | 11 | 88% | 76.25 | 0.0 | |||||||
| 04 | 01:55 | Calm | 16.09 | Fair | CLR | 13 | 11 | 88% | 76.28 | 0.0 | |||||||
| 04 | 01:35 | Calm | 16.09 | Fair | CLR | 13 | 11 | 88% | 76.28 | 0.0 | |||||||
| 04 | 01:15 | Calm | 16.09 | Fair | CLR | 14 | 11 | 82% | 76.28 | 0.0 | |||||||
| 04 | 00:55 | Calm | 16.09 | Fair | CLR | 13 | 11 | 88% | 76.3 | 0.0 | |||||||
| 04 | 00:35 | Calm | 16.09 | Fair | CLR | 13 | 11 | 88% | 76.28 | 0.0 | |||||||
| 04 | 00:15 | Calm | 16.09 | Fair | CLR | 15 | 11 | 77% | 76.28 | 0.0 | |||||||
| 03 | 23:55 | Calm | 16.09 | Fair | CLR | 15 | 11 | 77% | 76.3 | 0.0 | |||||||
| 03 | 23:35 | Calm | 16.09 | Fair | CLR | 15 | 11 | 77% | 76.33 | 0.0 | |||||||
| 03 | 23:15 | Calm | 16.09 | Fair | CLR | 15 | 11 | 77% | 76.33 | 0.0 | |||||||
| 03 | 22:55 | Calm | 16.09 | Fair | CLR | 15 | 11 | 77% | 76.33 | 0.0 | |||||||
| 03 | 22:35 | Calm | 16.09 | Fair | CLR | 16 | 11 | 72% | 76.33 | 0.0 | |||||||
| 03 | 22:15 | Calm | 16.09 | Fair | CLR | 16 | 11 | 72% | 76.33 | 0.0 | |||||||
| 03 | 21:55 | Calm | 16.09 | Fair | CLR | 17 | 11 | 68% | 76.33 | 0.0 | |||||||
| 03 | 21:35 | Calm | 16.09 | Fair | CLR | 17 | 11 | 68% | 76.3 | 0.0 | |||||||
| 03 | 21:15 | Calm | 16.09 | Partly Cloudy | SCT075 | 17 | 11 | 68% | 76.3 | 0.0 | |||||||
| 03 | 20:55 | Calm | 16.09 | Mostly Cloudy | BKN075 | 18 | 11 | 64% | 76.28 | 0.0 | 0.03 | ||||||
| 03 | 20:35 | Calm | 16.09 | Mostly Cloudy | BKN075 | 20 | 10 | 53% | 76.28 | 0.0 | 0.03 | ||||||
| 03 | 20:15 | Calm | 16.09 | Mostly Cloudy | BKN075 | 20 | 10 | 53% | 76.28 | 0.0 | |||||||
| 03 | 19:55 | Calm | 16.09 | Partly Cloudy | SCT075 | 22 | 8 | 41% | 76.25 | 0.0 | |||||||
| 03 | 19:35 | Calm | 16.09 | Fair | CLR | 23 | 8 | 38% | 76.25 | 0.0 | |||||||
| 03 | 19:15 | SW 6 | 16.09 | Fair | CLR | 23 | 8 | 38% | 76.25 | 0.0 | |||||||
| 03 | 18:55 | SW 6 | 16.09 | Fair | CLR | 24 | 7 | 34% | 25 | 76.25 | 0.0 | ||||||
| 03 | 18:35 | S 9 | 16.09 | Fair | CLR | 25 | 6 | 30% | 25 | 76.25 | 0.0 | ||||||
| 03 | 18:15 | SW 13 | 16.09 | Fair | CLR | 26 | 5 | 26% | 26 | 76.28 | 0.0 | ||||||
| 03 | 17:55 | SW 7 | 16.09 | Partly Cloudy | SCT080 | 26 | 4 | 24% | 26 | 76.28 | 0.0 | 0.03 | |||||
| 03 | 17:35 | SW 7 | 16.09 | Partly Cloudy | SCT070 | 26 | 6 | 28% | 26 | 76.3 | 0.0 | ||||||
| 03 | 17:15 | SW 17 | 16.09 | Mostly Cloudy | BKN070 | 26 | 7 | 30% | 26 | 76.33 | 0.0 | ||||||
| 03 | 16:55 | SW 7 | 16.09 | Partly Cloudy | SCT070 | 25 | 6 | 30% | 25 | 76.33 | 0.0 | ||||||
| 03 | 16:35 | SW 15 | 16.09 | Partly Cloudy | SCT070 | 26 | 6 | 28% | 26 | 76.33 | 0.0 | ||||||
| 03 | 16:15 | S 9 | 16.09 | Mostly Cloudy | BKN070 | 26 | 7 | 30% | 26 | 76.35 | 0.0 | ||||||
| 03 | 15:55 | W 6 | 16.09 | Partly Cloudy | SCT070 | 26 | 6 | 28% | 26 | 76.38 | 0.0 | 0.03 | |||||
| 03 | 15:35 | Calm | 16.09 | Partly Cloudy | SCT070 | 26 | 6 | 28% | 26 | 76.4 | 0.0 | 0.03 | |||||
| 03 | 15:15 | SW 17 | 16.09 | Partly Cloudy | SCT070 | 25 | 6 | 30% | 25 | 76.45 | 0.0 | 0.03 | |||||
| 03 | 14:55 | W 13 | 16.09 | Partly Cloudy | SCT070 | 26 | 7 | 30% | 26 | 76.45 | 0.0 | ||||||
| 03 | 14:35 | SW 13 | 16.09 | Partly Cloudy | SCT070 | 26 | 7 | 30% | 26 | 76.5 | 0.0 | ||||||
| 03 | 14:15 | W 15 | 16.09 | Partly Cloudy | SCT070 | 26 | 7 | 30% | 26 | 76.53 | 0.0 | ||||||
| 03 | 13:55 | W 20 G 30 | 16.09 | Fair | CLR | 25 | 6 | 30% | 25 | 76.56 | 0.0 | 0.03 | |||||
| 03 | 13:35 | SW 20 G 30 | 16.09 | Fair | CLR | 25 | 6 | 30% | 25 | 76.58 | 0.0 | 0.03 | |||||
| 03 | 13:15 | W 19 | 16.09 | Fair | CLR | 25 | 7 | 32% | 25 | 76.61 | 0.0 | 0.03 | |||||
| 03 | 12:55 | W 17 | 16.09 | Fair | CLR | 25 | 7 | 32% | 25 | 76.63 | 0.0 | ||||||
| 03 | 12:35 | W 17 | 16.09 | Fair | CLR | 25 | 7 | 32% | 25 | 76.63 | 0.0 | ||||||
| 03 | 12:15 | W 11 | 16.09 | Fair | CLR | 24 | 7 | 34% | 25 | 76.66 | 0.0 | ||||||
| 03 | 11:55 | Calm | 16.09 | Fair | CLR | 23 | 7 | 36% | 76.68 | 0.0 | |||||||
| 03 | 11:35 | SW 13 | 16.09 | Fair | CLR | 23 | 7 | 36% | 76.68 | 0.0 | |||||||
| 03 | 11:15 | SW 6 | 16.09 | Fair | CLR | 22 | 8 | 41% | 76.68 | 0.0 | |||||||
| 03 | 10:55 | NW 7 | 16.09 | Fair | CLR | 21 | 10 | 50% | 76.68 | 0.0 | |||||||
| 03 | 10:35 | W 7 | 16.09 | Fair | CLR | 20 | 11 | 56% | 76.71 | 0.0 | |||||||
| 03 | 10:15 | SW 7 | 16.09 | Fair | CLR | 20 | 11 | 56% | 76.71 | 0.0 | |||||||
| 03 | 09:55 | Calm | 16.09 | Fair | CLR | 18 | 10 | 60% | 76.71 | 0.0 | |||||||
| 03 | 09:35 | Calm | 16.09 | Partly Cloudy | SCT085 | 17 | 11 | 68% | 76.71 | 0.0 | |||||||
| 03 | 09:15 | Calm | 16.09 | Partly Cloudy | SCT085 | 15 | 11 | 77% | 76.71 | 0.0 | |||||||
| 03 | 08:55 | Calm | 16.09 | Mostly Cloudy | BKN085 | 14 | 11 | 82% | 76.71 | 0.0 | |||||||
| 03 | 08:35 | Calm | 16.09 | Mostly Cloudy | BKN085 | 13 | 11 | 88% | 76.71 | 0.0 | |||||||
| 03 | 08:15 | Calm | 16.09 | Mostly Cloudy | BKN085 | 12 | 11 | 94% | 76.71 | 0.0 | |||||||
| 03 | 07:55 | Calm | 16.09 | Partly Cloudy | SCT085 | 11 | 9 | 88% | 76.68 | 0.0 | |||||||
| 03 | 07:35 | Calm | 16.09 | Fair | CLR | 10 | 8 | 88% | 76.68 | 0.0 | |||||||
| 03 | 07:15 | Calm | 16.09 | Partly Cloudy | SCT075 | 10 | 8 | 88% | 76.66 | 0.0 | |||||||
| 03 | 06:55 | Calm | 16.09 | Mostly Cloudy | BKN075 | 9 | 7 | 87% | 76.63 | 0.0 | |||||||
| 03 | 06:35 | Calm | 16.09 | Partly Cloudy | SCT075 | 8 | 7 | 93% | 76.61 | 0.0 | |||||||
| 03 | 06:15 | Calm | 16.09 | Partly Cloudy | SCT070 | 8 | 7 | 93% | 76.58 | 0.0 | |||||||
| 03 | 05:55 | Calm | 16.09 | Fair | CLR | 9 | 7 | 87% | 76.58 | 0.0 | |||||||
| 03 | 05:35 | Calm | 16.09 | Fair | CLR | 8 | 7 | 93% | 76.56 | 0.0 | |||||||
| 03 | 05:15 | Calm | 16.09 | Fair | CLR | 9 | 8 | 94% | 76.56 | 0.0 | |||||||
| 03 | 04:55 | Calm | 16.09 | Fair | CLR | 9 | 8 | 94% | 76.56 | 0.0 | |||||||
| 03 | 04:35 | Calm | 16.09 | Fair | CLR | 8 | 7 | 93% | 76.56 | 0.0 | |||||||
| 03 | 04:15 | Calm | 16.09 | Fair | CLR | 9 | 8 | 94% | 76.56 | 0.0 | |||||||
| 03 | 03:55 | Calm | 16.09 | Fair | CLR | 9 | 8 | 94% | 76.56 | 0.0 | |||||||
| 03 | 03:35 | Calm | 16.09 | Fair | CLR | 10 | 8 | 88% | 76.56 | 0.0 | |||||||
| 03 | 03:15 | Calm | 16.09 | Fair | CLR | 10 | 8 | 88% | 76.56 | 0.0 | |||||||
| 03 | 02:55 | Calm | 16.09 | Fair | CLR | 10 | 8 | 88% | 76.53 | 0.0 | |||||||
| 03 | 02:35 | Calm | 11.27 | Fair | CLR | 10 | 8 | 88% | 76.53 | 0.0 | |||||||
| 03 | 02:15 | Calm | 16.09 | Fair | CLR | 10 | 9 | 94% | 76.53 | 0.0 | |||||||
| 03 | 01:55 | Calm | 16.09 | Fair | CLR | 10 | 9 | 94% | 76.53 | 0.0 | |||||||
| 03 | 01:35 | Calm | 16.09 | Fair | CLR | 10 | 9 | 94% | 76.53 | 0.0 | |||||||
| 03 | 01:15 | Calm | 16.09 | Fair | CLR | 11 | 9 | 88% | 76.53 | 0.0 | |||||||
| 03 | 00:55 | Calm | 16.09 | Fair | CLR | 11 | 9 | 88% | 76.56 | 0.0 | |||||||
| 03 | 00:35 | Calm | 16.09 | Fair | CLR | 11 | 10 | 94% | 76.56 | 0.0 | |||||||
| 03 | 00:15 | Calm | 16.09 | Fair | CLR | 11 | 9 | 88% | 76.53 | 0.0 | |||||||
| 02 | 23:55 | Calm | 16.09 | Fair | CLR | 11 | 10 | 94% | 76.53 | 0.0 | 0.03 | ||||||
| 02 | 23:35 | Calm | 16.09 | Fair | CLR | 11 | 10 | 94% | 76.53 | 0.0 | |||||||
| 02 | 23:15 | Calm | 16.09 | Fair | CLR | 12 | 10 | 88% | 76.53 | 0.0 | |||||||
| 02 | 22:55 | Calm | 16.09 | Fair | CLR | 12 | 10 | 88% | 76.53 | 0.0 | |||||||
| 02 | 22:35 | Calm | 16.09 | Fair | CLR | 12 | 10 | 88% | 76.5 | 0.0 | |||||||
| 02 | 22:15 | Calm | 16.09 | Fair | CLR | 12 | 10 | 88% | 76.5 | 0.0 | |||||||
| 02 | 21:55 | Calm | 16.09 | Fair | CLR | 13 | 10 | 82% | 76.5 | 0.0 | |||||||
| 02 | 21:35 | Calm | 16.09 | Fair | CLR | 13 | 10 | 82% | 76.48 | 0.0 | |||||||
| 02 | 21:15 | Calm | 16.09 | Fair | CLR | 14 | 10 | 77% | 76.45 | 0.0 | |||||||
| 02 | 20:55 | Calm | 16.09 | Fair | CLR | 15 | 9 | 68% | 76.45 | 0.0 | |||||||
| 02 | 20:35 | Calm | 16.09 | Fair | CLR | 15 | 10 | 72% | 76.43 | 0.0 | |||||||
| 02 | 20:15 | Calm | 16.09 | Fair | CLR | 16 | 6 | 52% | 76.4 | 0.0 | |||||||
| 02 | 19:55 | Calm | 16.09 | Fair | CLR | 18 | 7 | 49% | 76.4 | 0.0 | |||||||
| 02 | 19:35 | Calm | 16.09 | Fair | CLR | 20 | 6 | 40% | 76.4 | 0.0 | |||||||
| 02 | 18:55 | Calm | 16.09 | Partly Cloudy | SCT080 | 22 | 5 | 33% | 76.38 | 0.0 | |||||||
| 02 | 18:35 | N 7 | 16.09 | Partly Cloudy | SCT080 | 22 | 3 | 29% | 76.38 | 0.0 | |||||||
| 02 | 18:15 | NW 9 | 16.09 | Fair | CLR | 22 | 2 | 27% | 76.38 | 0.0 | |||||||
| Date | Time (cdt) | Wind (kph) | Vis. (km) | Weather | Sky Cond. | Air | Dwpt | Max. | Min. | Relative Humidity | Wind Chill (°C) | Heat Index (°C) | altimeter (cm) | sea level (mb) | 1 hr | 3 hr | 6 hr |
| 6 hour | |||||||||||||||||
| Temperature (ºC) | Pressure | Precipitation (cm) | |||||||||||||||